Time;durP1;ratioP1;P1;durP2;ratioP2;P2;SDS_P1;SDS_P2;PMS_P1;PMS_P2;Temp;Humidity;BMP_temperature;BMP_pressure;BME280_temperature;BME280_humidity;BME280_pressure;Samples;Min_cycle;Max_cycle;Signal;HPM_P1;HPM_P2
2024/02/09 00:02:33;;;;;;;7.30;5.10;;;23.00;43.20;;;;;;6158080;28;81086;-63
2024/02/09 00:05:34;;;;;;;6.10;4.65;;;22.90;43.00;;;;;;6176136;28;80080;-61
2024/02/09 00:08:36;;;;;;;5.78;4.28;;;23.00;43.00;;;;;;6176299;28;80571;-62
2024/02/09 00:11:36;;;;;;;7.20;5.03;;;23.00;43.10;;;;;;6176160;28;80425;-61
2024/02/09 00:14:37;;;;;;;6.22;4.80;;;23.00;43.00;;;;;;6171889;28;80421;-61
2024/02/09 00:17:37;;;;;;;6.25;4.78;;;23.00;43.00;;;;;;6175379;28;80442;-52
2024/02/09 00:20:38;;;;;;;5.72;4.38;;;23.00;43.10;;;;;;6180023;28;80508;-51
2024/02/09 00:23:38;;;;;;;7.18;5.18;;;23.00;43.20;;;;;;6181384;28;81533;-53
2024/02/09 00:26:39;;;;;;;6.57;4.70;;;23.00;43.20;;;;;;6179918;28;80767;-55
2024/02/09 00:29:39;;;;;;;5.65;4.40;;;23.00;43.40;;;;;;6168468;28;80872;-53
2024/02/09 00:32:41;;;;;;;6.35;5.03;;;23.00;43.40;;;;;;6178851;28;80921;-54
2024/02/09 00:35:42;;;;;;;8.00;5.20;;;22.90;43.10;;;;;;6179020;28;82753;-59
2024/02/09 00:38:42;;;;;;;5.50;4.53;;;23.00;43.20;;;;;;6173044;28;80502;-60
2024/02/09 00:41:43;;;;;;;7.32;4.88;;;23.00;43.50;;;;;;6160582;28;80375;-60
2024/02/09 00:44:43;;;;;;;6.25;4.43;;;23.00;43.30;;;;;;6179713;28;81443;-61
2024/02/09 00:47:46;;;;;;;7.32;5.45;;;23.00;43.40;;;;;;6178308;28;80698;-62
2024/02/09 00:50:46;;;;;;;6.47;5.05;;;23.00;43.40;;;;;;6180150;28;80156;-61
2024/02/09 00:53:47;;;;;;;5.53;4.50;;;22.90;43.40;;;;;;6175883;28;80457;-60
2024/02/09 00:56:47;;;;;;;7.07;4.80;;;22.90;43.30;;;;;;6169490;28;80455;-55
2024/02/09 00:59:48;;;;;;;7.80;5.13;;;22.90;43.40;;;;;;6172092;28;87212;-57
2024/02/09 01:02:51;;;;;;;6.63;5.22;;;22.90;43.50;;;;;;6178995;28;80520;-52
2024/02/09 01:05:51;;;;;;;6.38;5.22;;;22.90;43.30;;;;;;6179534;28;81140;-52
2024/02/09 01:08:52;;;;;;;8.38;5.97;;;22.90;43.40;;;;;;6179822;28;80483;-54
2024/02/09 01:11:52;;;;;;;6.50;4.85;;;22.90;43.40;;;;;;6179263;28;80880;-55
2024/02/09 02:47:16;;;;;;;7.65;4.95;;;22.80;42.90;;;;;;6168368;28;80220;-60
2024/02/09 03:06:53;;;;;;;7.13;4.53;;;22.80;42.70;;;;;;6153235;28;80678;-59
2024/02/09 03:09:53;;;;;;;5.18;4.20;;;22.80;42.90;;;;;;6174207;28;80819;-59
2024/02/09 03:12:54;;;;;;;7.05;4.63;;;22.80;43.50;;;;;;6170545;28;80750;-59
2024/02/09 03:15:55;;;;;;;5.30;4.43;;;22.80;42.90;;;;;;6166534;28;82715;-60
2024/02/09 03:18:55;;;;;;;6.15;4.45;;;22.80;43.10;;;;;;6172835;28;80469;-60
2024/02/09 03:21:56;;;;;;;5.90;4.50;;;22.80;43.20;;;;;;6172405;28;80922;-51
2024/02/09 03:25:02;;;;;;;6.93;4.90;;;22.80;42.80;;;;;;6170375;28;80851;-50
2024/02/09 03:28:02;;;;;;;6.30;4.35;;;22.80;42.70;;;;;;6163738;28;80973;-48
2024/02/09 03:31:03;;;;;;;5.68;4.40;;;22.80;42.90;;;;;;6166128;28;82214;-50
2024/02/09 03:34:04;;;;;;;6.07;4.35;;;22.80;43.10;;;;;;6173727;28;80652;-52
2024/02/09 03:37:05;;;;;;;5.65;4.05;;;22.80;43.10;;;;;;6174079;28;81173;-50
2024/02/09 03:40:05;;;;;;;5.65;4.30;;;22.80;42.90;;;;;;6170891;28;81165;-49
2024/02/09 03:43:08;;;;;;;5.10;4.28;;;22.80;42.70;;;;;;6159539;28;81388;-53
2024/02/09 03:46:08;;;;;;;6.57;4.60;;;22.80;42.90;;;;;;6163503;28;80832;-48
2024/02/09 03:49:11;;;;;;;4.82;4.32;;;22.80;42.80;;;;;;6178882;28;80650;-54
2024/02/09 03:52:12;;;;;;;6.03;3.85;;;22.80;42.80;;;;;;6179824;28;80589;-54
2024/02/09 03:55:16;;;;;;;6.15;4.53;;;22.80;42.90;;;;;;6159509;28;80571;-50
2024/02/09 03:58:17;;;;;;;5.88;4.32;;;22.80;42.70;;;;;;6156918;28;81158;-61
2024/02/09 04:01:18;;;;;;;5.72;4.47;;;22.80;42.50;;;;;;6166972;28;80447;-59
2024/02/09 04:04:19;;;;;;;6.43;4.53;;;22.80;42.70;;;;;;6169132;28;80493;-59
2024/02/09 04:07:22;;;;;;;7.72;4.10;;;22.80;42.70;;;;;;6164035;28;80336;-61
2024/02/09 04:10:23;;;;;;;7.35;4.85;;;22.80;42.60;;;;;;6169759;28;80601;-63
2024/02/09 04:13:23;;;;;;;4.72;4.25;;;22.80;42.80;;;;;;6167227;28;83133;-64
2024/02/09 04:16:24;;;;;;;5.25;4.20;;;22.80;43.20;;;;;;6159734;28;81300;-63
2024/02/09 04:19:24;;;;;;;8.57;4.55;;;22.80;42.90;;;;;;6169668;28;80481;-62
2024/02/09 04:22:27;;;;;;;7.15;4.38;;;22.80;42.50;;;;;;6156818;28;80455;-62
2024/02/09 04:25:27;;;;;;;6.63;4.22;;;22.90;42.50;;;;;;6158997;28;81673;-65
2024/02/09 04:28:28;;;;;;;6.35;4.20;;;22.90;42.40;;;;;;6178875;28;80306;-64
2024/02/09 04:31:29;;;;;;;5.65;4.07;;;22.90;41.80;;;;;;6156809;28;83574;-62
2024/02/09 04:34:31;;;;;;;7.05;4.75;;;23.00;41.60;;;;;;6161413;28;80798;-55
2024/02/09 04:37:31;;;;;;;5.13;3.80;;;23.00;41.60;;;;;;6176785;28;80685;-49
2024/02/09 04:40:32;;;;;;;6.93;4.47;;;23.00;41.50;;;;;;6164073;28;80579;-51
2024/02/09 04:43:32;;;;;;;5.68;4.25;;;23.00;41.40;;;;;;6171019;28;80877;-53
2024/02/09 04:46:33;;;;;;;7.00;4.65;;;23.10;41.40;;;;;;6171384;28;81420;-52
2024/02/09 04:49:33;;;;;;;4.68;3.72;;;23.10;41.20;;;;;;6174998;28;80480;-51
2024/02/09 04:52:35;;;;;;;5.30;3.95;;;23.10;41.30;;;;;;6176817;28;81112;-55
2024/02/09 04:55:35;;;;;;;5.45;3.78;;;23.10;41.20;;;;;;6155349;28;80477;-58
2024/02/09 04:58:36;;;;;;;6.93;4.03;;;23.20;41.30;;;;;;6163777;28;82373;-55
2024/02/09 05:01:39;;;;;;;4.95;3.92;;;23.20;41.50;;;;;;6166742;28;80607;-55
2024/02/09 05:04:40;;;;;;;6.22;3.90;;;23.20;41.20;;;;;;6172758;28;80407;-54
2024/02/09 05:07:40;;;;;;;6.45;4.38;;;23.30;41.30;;;;;;6170182;28;80527;-54
2024/02/09 05:10:41;;;;;;;4.70;3.92;;;23.30;41.30;;;;;;6167256;28;80592;-53
2024/02/09 05:13:41;;;;;;;4.35;3.47;;;23.20;41.50;;;;;;6155255;28;80967;-60
2024/02/09 05:16:42;;;;;;;7.32;3.67;;;23.30;41.50;;;;;;6154441;28;80681;-56
2024/02/09 05:19:42;;;;;;;4.80;3.40;;;23.30;41.80;;;;;;6154677;28;80647;-54
2024/02/09 05:22:46;;;;;;;4.05;3.17;;;23.30;42.00;;;;;;6154315;28;81478;-54
2024/02/09 05:25:46;;;;;;;8.23;3.80;;;23.30;42.20;;;;;;6154430;28;80042;-49
2024/02/09 05:28:48;;;;;;;6.40;4.07;;;23.40;42.30;;;;;;6154765;28;83226;-52
2024/02/09 05:31:49;;;;;;;5.50;3.70;;;23.40;42.70;;;;;;6158791;28;80710;-62
2024/02/09 05:34:50;;;;;;;6.93;4.30;;;23.40;42.70;;;;;;6165842;28;81387;-56
2024/02/09 05:37:51;;;;;;;12.43;3.38;;;23.40;42.50;;;;;;6169824;28;83445;-58
2024/02/09 05:40:51;;;;;;;5.40;3.72;;;23.40;42.70;;;;;;6169145;28;80430;-58
2024/02/09 05:43:52;;;;;;;10.43;3.83;;;23.40;42.70;;;;;;6145022;28;81115;-58
2024/02/09 05:46:52;;;;;;;4.03;3.38;;;23.40;42.70;;;;;;6151564;28;83757;-52
2024/02/09 05:49:53;;;;;;;7.90;3.75;;;23.40;42.60;;;;;;6163148;28;83034;-60
2024/02/09 05:52:56;;;;;;;8.82;3.72;;;23.40;43.00;;;;;;6169109;28;80292;-60
2024/02/09 05:55:57;;;;;;;10.30;3.75;;;23.40;43.30;;;;;;6169749;28;81338;-60
2024/02/09 05:58:59;;;;;;;8.45;3.83;;;23.30;43.60;;;;;;6155324;28;81325;-60
2024/02/09 06:02:00;;;;;;;4.43;3.30;;;23.30;43.60;;;;;;6157722;28;80596;-60
2024/02/09 06:05:00;;;;;;;5.07;3.20;;;23.30;43.30;;;;;;6154002;28;80394;-60
2024/02/09 06:08:01;;;;;;;6.00;3.72;;;23.30;43.10;;;;;;6165578;28;80653;-60
2024/02/09 06:11:03;;;;;;;6.38;3.60;;;23.30;43.00;;;;;;6165898;28;81026;-60
2024/02/09 06:14:04;;;;;;;4.85;3.25;;;23.20;42.70;;;;;;6166694;28;80781;-59
2024/02/09 06:17:04;;;;;;;7.40;3.83;;;23.20;42.90;;;;;;6169696;28;81288;-59
2024/02/09 06:20:05;;;;;;;7.57;4.28;;;23.20;42.80;;;;;;6170064;28;81293;-61
2024/02/09 06:23:05;;;;;;;5.70;3.60;;;23.20;42.40;;;;;;6169287;28;83421;-58
2024/02/09 06:26:06;;;;;;;5.05;3.72;;;23.10;42.50;;;;;;6172715;28;82011;-59
2024/02/09 06:29:08;;;;;;;4.40;3.58;;;23.10;43.00;;;;;;6173602;28;83492;-61
2024/02/09 06:32:08;;;;;;;7.03;4.18;;;23.10;42.20;;;;;;6164936;28;80808;-58
2024/02/09 06:35:10;;;;;;;4.85;3.95;;;23.10;42.70;;;;;;6164391;28;80475;-63
2024/02/09 06:38:11;;;;;;;4.80;3.58;;;23.10;42.90;;;;;;6172585;28;80237;-65
2024/02/09 06:41:11;;;;;;;5.18;3.47;;;23.00;42.40;;;;;;6170421;28;80288;-63
2024/02/09 06:44:12;;;;;;;6.70;3.70;;;23.10;42.60;;;;;;6170728;28;83120;-63
2024/02/09 06:47:13;;;;;;;5.10;3.80;;;23.10;43.00;;;;;;6168794;28;80115;-61
2024/02/09 06:50:13;;;;;;;6.57;4.07;;;23.10;42.30;;;;;;6169640;28;80985;-65
2024/02/09 06:53:15;;;;;;;6.22;4.50;;;23.00;43.00;;;;;;6175081;28;80252;-59
2024/02/09 06:56:16;;;;;;;8.35;4.20;;;23.00;43.20;;;;;;6167362;28;80384;-64
2024/02/09 06:59:16;;;;;;;5.57;3.85;;;23.00;43.50;;;;;;6175992;28;80728;-64
2024/02/09 07:02:18;;;;;;;6.53;4.72;;;23.00;43.30;;;;;;6175657;28;80109;-64
2024/02/09 07:05:22;;;;;;;8.18;4.72;;;23.00;43.20;;;;;;6167106;28;83085;-62
2024/02/09 07:08:30;;;;;;;6.93;3.97;;;23.00;43.20;;;;;;6162725;28;80665;-61
2024/02/09 07:11:30;;;;;;;8.63;4.80;;;23.00;42.90;;;;;;6165766;28;80602;-62
2024/02/09 07:14:31;;;;;;;9.52;5.00;;;23.00;42.70;;;;;;6162007;28;80836;-61
2024/02/09 07:17:32;;;;;;;6.10;4.72;;;23.00;42.90;;;;;;6155785;28;80746;-61
2024/02/09 07:20:33;;;;;;;5.88;4.53;;;23.00;43.30;;;;;;6157702;28;80517;-60
2024/02/09 07:23:35;;;;;;;7.35;5.35;;;22.90;42.40;;;;;;6168061;28;80509;-63
2024/02/09 07:26:35;;;;;;;7.20;5.05;;;22.90;42.90;;;;;;6151482;28;80637;-61
2024/02/09 07:29:36;;;;;;;6.72;5.13;;;22.90;42.50;;;;;;6155999;28;81176;-60
2024/02/09 07:32:36;;;;;;;6.03;4.97;;;22.90;42.60;;;;;;6156143;28;80130;-61
2024/02/09 07:35:37;;;;;;;7.40;5.30;;;22.90;42.40;;;;;;6164735;28;81575;-61
2024/02/09 07:38:37;;;;;;;8.43;5.82;;;22.90;42.50;;;;;;6168605;28;82986;-60
2024/02/09 07:41:38;;;;;;;8.13;4.80;;;22.90;42.40;;;;;;6158279;28;80504;-62
2024/02/09 07:44:39;;;;;;;7.78;5.47;;;22.90;42.40;;;;;;6168021;28;81603;-61
2024/02/09 07:47:40;;;;;;;6.97;4.90;;;22.90;42.40;;;;;;6162327;28;81433;-61
2024/02/09 07:50:41;;;;;;;7.53;5.13;;;22.90;42.30;;;;;;6158748;28;80385;-61
2024/02/09 07:53:41;;;;;;;7.05;5.28;;;23.00;42.30;;;;;;6174291;28;80542;-61
2024/02/09 07:56:42;;;;;;;9.82;6.38;;;22.90;42.40;;;;;;6174252;28;80251;-61
2024/02/09 07:59:43;;;;;;;8.15;5.40;;;22.90;42.40;;;;;;6173047;28;82042;-61
2024/02/09 08:02:44;;;;;;;8.25;6.03;;;22.90;42.50;;;;;;6173175;28;80468;-61
2024/02/09 08:05:44;;;;;;;8.93;5.93;;;22.90;42.50;;;;;;6173575;28;81114;-61
2024/02/09 08:08:45;;;;;;;8.73;5.85;;;22.90;42.60;;;;;;6175402;28;81509;-62
2024/02/09 08:11:47;;;;;;;7.63;5.72;;;22.90;42.60;;;;;;6156101;28;80798;-61
2024/02/09 08:14:49;;;;;;;9.27;6.38;;;22.90;42.60;;;;;;6159650;28;80950;-62
2024/02/09 08:17:50;;;;;;;7.68;6.38;;;22.90;42.40;;;;;;6155750;28;85207;-61
2024/02/09 08:20:51;;;;;;;7.90;6.15;;;22.90;42.40;;;;;;6162721;28;80659;-62
2024/02/09 08:23:51;;;;;;;10.07;6.32;;;22.90;42.50;;;;;;6159810;28;80897;-62
2024/02/09 08:26:52;;;;;;;9.13;5.90;;;22.90;42.40;;;;;;6154825;28;80624;-61
2024/02/09 08:29:56;;;;;;;7.25;5.50;;;22.90;42.80;;;;;;6166051;28;80520;-61
2024/02/09 08:32:56;;;;;;;8.20;5.95;;;22.90;43.40;;;;;;6159245;28;80479;-53
2024/02/09 08:35:57;;;;;;;9.88;6.72;;;22.90;43.10;;;;;;6165253;28;82653;-51
2024/02/09 08:38:57;;;;;;;8.38;6.43;;;23.00;42.60;;;;;;6166331;28;81085;-48
2024/02/09 08:41:58;;;;;;;10.82;7.10;;;23.00;42.50;;;;;;6158964;28;81486;-48
2024/02/09 08:44:58;;;;;;;10.13;6.78;;;23.00;42.10;;;;;;6170831;28;83274;-50
2024/02/09 08:47:59;;;;;;;10.60;6.82;;;23.10;42.00;;;;;;6173714;28;80426;-54
2024/02/09 08:50:59;;;;;;;11.93;8.07;;;23.10;42.10;;;;;;6172974;28;80414;-49
2024/02/09 08:54:00;;;;;;;10.32;7.35;;;23.10;41.70;;;;;;6167737;28;81767;-62
2024/02/09 08:57:02;;;;;;;10.93;7.35;;;23.20;41.70;;;;;;6154696;28;91437;-65
2024/02/09 09:00:07;;;;;;;10.20;6.75;;;23.20;41.60;;;;;;6176744;28;82406;-67
2024/02/09 09:03:07;;;;;;;12.43;7.40;;;23.20;41.80;;;;;;6173570;28;80800;-60
2024/02/09 09:06:08;;;;;;;12.23;7.80;;;23.20;41.50;;;;;;6164652;28;80768;-59
2024/02/09 09:09:09;;;;;;;9.18;6.82;;;23.20;41.70;;;;;;6174924;28;80187;-63
2024/02/09 09:12:09;;;;;;;12.60;7.38;;;23.20;41.70;;;;;;6167496;28;80733;-59
2024/02/09 09:15:10;;;;;;;12.05;8.18;;;23.30;41.80;;;;;;6159581;28;81590;-60
2024/02/09 09:18:11;;;;;;;12.90;8.30;;;23.20;41.80;;;;;;6161158;28;80573;-60
2024/02/09 09:21:11;;;;;;;11.38;7.63;;;23.20;41.80;;;;;;6161512;28;81548;-59
2024/02/09 09:24:14;;;;;;;12.25;7.72;;;23.30;41.90;;;;;;6163705;28;80137;-63
2024/02/09 09:27:15;;;;;;;12.23;7.80;;;23.30;41.80;;;;;;6158976;28;80907;-61
2024/02/09 09:30:19;;;;;;;12.45;8.25;;;23.30;41.70;;;;;;6159996;28;80792;-54
2024/02/09 09:33:19;;;;;;;13.05;8.85;;;23.30;41.90;;;;;;6142506;28;86649;-51
2024/02/09 09:36:20;;;;;;;12.38;8.15;;;23.30;41.90;;;;;;6169604;28;80823;-51
2024/02/09 09:39:20;;;;;;;13.80;8.60;;;23.40;41.80;;;;;;6173863;28;81233;-49
2024/02/09 09:42:23;;;;;;;13.73;8.45;;;23.40;41.70;;;;;;6172532;28;80226;-50
2024/02/09 09:45:24;;;;;;;12.88;8.57;;;23.40;41.60;;;;;;6169757;28;81037;-51
2024/02/09 09:48:26;;;;;;;9.80;7.55;;;23.40;41.60;;;;;;6167682;28;80965;-51
2024/02/09 09:51:30;;;;;;;12.13;8.10;;;23.40;41.70;;;;;;6174635;28;83235;-49
2024/02/09 09:54:31;;;;;;;11.93;8.10;;;23.50;41.60;;;;;;6167280;28;80357;-50
2024/02/09 09:57:31;;;;;;;12.18;8.48;;;23.40;41.60;;;;;;6168538;28;81192;-49
2024/02/09 10:00:32;;;;;;;12.07;8.40;;;23.50;41.60;;;;;;6176845;28;80407;-53
2024/02/09 10:03:32;;;;;;;14.60;8.88;;;23.50;41.60;;;;;;6167814;28;80870;-50
2024/02/09 10:06:33;;;;;;;13.40;8.85;;;23.40;41.70;;;;;;6174100;28;81032;-48
2024/02/09 10:09:34;;;;;;;13.35;8.57;;;23.50;41.70;;;;;;6171755;28;80313;-52
2024/02/09 10:12:34;;;;;;;13.32;8.75;;;23.50;41.70;;;;;;6176663;28;81678;-50
2024/02/09 10:15:35;;;;;;;13.60;9.10;;;23.50;41.70;;;;;;6165997;28;80465;-48
2024/02/09 10:18:37;;;;;;;13.48;9.07;;;23.50;41.70;;;;;;6171493;28;81805;-50
2024/02/09 10:21:37;;;;;;;14.27;9.73;;;23.50;41.60;;;;;;6164191;28;80551;-50
2024/02/09 10:24:40;;;;;;;13.30;8.73;;;23.50;41.70;;;;;;6169287;28;80261;-62
2024/02/09 10:27:42;;;;;;;12.18;8.68;;;23.50;41.70;;;;;;6162772;28;81261;-63
2024/02/09 10:30:43;;;;;;;12.52;9.57;;;23.50;41.70;;;;;;6163574;28;80433;-63
2024/02/09 10:33:44;;;;;;;13.10;9.07;;;23.60;41.70;;;;;;6163106;28;81006;-63
2024/02/09 10:36:44;;;;;;;14.00;9.18;;;23.60;41.80;;;;;;6163724;28;81810;-64
2024/02/09 10:39:45;;;;;;;15.30;9.43;;;23.60;41.90;;;;;;6163292;28;80584;-63
2024/02/09 10:42:45;;;;;;;12.98;9.10;;;23.60;41.90;;;;;;6155291;28;81674;-46
2024/02/09 10:45:46;;;;;;;15.52;9.75;;;23.60;41.90;;;;;;6168604;28;82950;-50
2024/02/09 10:48:46;;;;;;;13.52;9.40;;;23.60;42.00;;;;;;6172363;28;81089;-49
2024/02/09 10:51:47;;;;;;;13.40;8.70;;;23.60;42.00;;;;;;6170953;28;80752;-52
2024/02/09 10:54:47;;;;;;;11.82;9.00;;;23.60;42.10;;;;;;6175932;28;80353;-53
2024/02/09 10:57:49;;;;;;;12.55;9.02;;;23.60;42.10;;;;;;6172976;28;80535;-50
2024/02/09 11:00:50;;;;;;;14.93;9.80;;;23.60;42.20;;;;;;6164988;28;80873;-50
2024/02/09 11:03:50;;;;;;;12.93;9.32;;;23.60;42.20;;;;;;6176657;28;81626;-48
2024/02/09 11:06:52;;;;;;;14.40;9.70;;;23.50;42.20;;;;;;6164956;28;85750;-52
2024/02/09 11:09:52;;;;;;;13.45;9.52;;;23.60;42.30;;;;;;6168705;28;82187;-49
2024/02/09 11:12:53;;;;;;;14.60;10.27;;;23.60;42.30;;;;;;6167309;28;80563;-48
2024/02/09 11:15:54;;;;;;;15.07;9.52;;;23.50;42.30;;;;;;6158812;28;83167;-49
2024/02/09 11:18:54;;;;;;;16.25;8.98;;;23.50;42.10;;;;;;6169687;28;82265;-50
2024/02/09 11:21:58;;;;;;;13.88;9.68;;;23.60;42.30;;;;;;6166296;28;80642;-49
2024/02/09 11:24:59;;;;;;;14.35;9.48;;;23.50;42.30;;;;;;6167844;28;81876;-50
2024/02/09 11:27:59;;;;;;;16.33;10.13;;;23.50;42.40;;;;;;6169456;28;80605;-48
2024/02/09 11:30:59;;;;;;;14.13;9.90;;;23.50;42.40;;;;;;6160834;28;82732;-48
2024/02/09 11:34:01;;;;;;;13.00;9.13;;;23.50;42.40;;;;;;6167594;28;83077;-51
2024/02/09 11:37:01;;;;;;;16.42;10.32;;;23.50;42.50;;;;;;6172686;28;80460;-63
2024/02/09 11:40:02;;;;;;;12.43;9.38;;;23.50;42.60;;;;;;6167926;28;83840;-63
2024/02/09 11:43:03;;;;;;;15.48;9.95;;;23.40;42.70;;;;;;6161835;28;87639;-63
2024/02/09 11:46:06;;;;;;;12.60;9.52;;;23.40;42.80;;;;;;6167791;28;81015;-62
2024/02/09 11:49:06;;;;;;;15.45;9.50;;;23.40;42.90;;;;;;6161752;28;81874;-62
2024/02/09 11:52:08;;;;;;;13.23;9.55;;;23.40;43.00;;;;;;6168251;28;80758;-62
2024/02/09 11:55:09;;;;;;;16.02;10.48;;;23.40;42.90;;;;;;6167376;28;80420;-61
2024/02/09 11:58:09;;;;;;;12.90;9.25;;;23.40;42.70;;;;;;6169468;28;83144;-54
2024/02/09 12:01:10;;;;;;;13.15;9.68;;;23.40;42.80;;;;;;6172241;28;82980;-51
2024/02/09 12:04:10;;;;;;;14.38;9.57;;;23.50;43.00;;;;;;6173545;28;81017;-51
2024/02/09 12:07:11;;;;;;;15.77;10.88;;;23.40;42.80;;;;;;6173493;28;80610;-48
2024/02/09 12:10:11;;;;;;;16.33;10.70;;;23.50;42.80;;;;;;6171647;28;85613;-49
2024/02/09 12:13:12;;;;;;;14.93;11.00;;;23.50;43.40;;;;;;6162125;28;85996;-51
2024/02/09 12:16:15;;;;;;;14.45;10.57;;;23.40;42.80;;;;;;6173605;28;83551;-49
2024/02/09 12:19:16;;;;;;;15.02;10.15;;;23.40;42.90;;;;;;6175076;28;82969;-47
2024/02/09 12:22:17;;;;;;;15.20;10.20;;;23.40;42.70;;;;;;6175183;28;83199;-48
2024/02/09 12:25:18;;;;;;;15.80;11.27;;;23.40;42.70;;;;;;6161086;28;82989;-50
2024/02/09 12:28:18;;;;;;;13.75;9.88;;;23.30;42.80;;;;;;6174802;28;83234;-49
2024/02/09 12:31:19;;;;;;;14.55;10.30;;;23.30;42.80;;;;;;6169662;28;82780;-49
2024/02/09 12:34:19;;;;;;;17.17;10.48;;;23.40;43.10;;;;;;6158497;28;85610;-62
2024/02/09 12:37:20;;;;;;;13.27;9.75;;;23.40;43.10;;;;;;6157933;28;85810;-62
2024/02/09 12:40:20;;;;;;;15.18;9.60;;;23.40;43.20;;;;;;6177477;28;83418;-62
2024/02/09 12:43:21;;;;;;;14.07;10.55;;;23.40;43.10;;;;;;6177240;28;81805;-64
2024/02/09 12:46:21;;;;;;;15.40;10.20;;;23.30;43.00;;;;;;6171810;28;83125;-64
2024/02/09 12:49:22;;;;;;;17.27;11.27;;;23.30;42.90;;;;;;6138981;28;85365;-64
2024/02/09 12:52:25;;;;;;;17.40;11.18;;;23.30;42.90;;;;;;6164504;28;87544;-62
2024/02/09 12:55:25;;;;;;;14.18;9.90;;;23.30;43.00;;;;;;6164787;28;85945;-61
2024/02/09 12:58:26;;;;;;;16.58;9.93;;;23.30;43.40;;;;;;6165323;28;81836;-61
2024/02/09 13:01:27;;;;;;;16.90;9.65;;;23.30;43.20;;;;;;6168140;28;81091;-65
2024/02/09 13:04:27;;;;;;;16.65;9.85;;;23.30;43.50;;;;;;6158495;28;85893;-65
2024/02/09 13:07:28;;;;;;;15.82;10.02;;;23.30;43.70;;;;;;6151787;28;86332;-67
2024/02/09 13:10:28;;;;;;;17.63;10.77;;;23.30;43.90;;;;;;6167210;28;83105;-63
2024/02/09 13:13:30;;;;;;;20.38;11.13;;;23.30;44.00;;;;;;6163612;28;86391;-61
2024/02/09 13:16:31;;;;;;;15.52;10.27;;;23.30;43.80;;;;;;6166162;28;84550;-62
2024/02/09 13:19:31;;;;;;;15.27;10.20;;;23.30;44.90;;;;;;6170493;28;83109;-62
2024/02/09 13:22:32;;;;;;;15.82;10.73;;;23.30;43.90;;;;;;6154598;28;85020;-63
2024/02/09 13:25:35;;;;;;;13.57;9.38;;;23.30;44.10;;;;;;6163980;28;83216;-61
2024/02/09 13:28:39;;;;;;;13.77;9.85;;;23.30;43.80;;;;;;6168442;28;81889;-47
2024/02/09 13:31:39;;;;;;;16.73;10.45;;;23.20;43.80;;;;;;6160251;28;80416;-47
2024/02/09 13:34:39;;;;;;;16.63;10.13;;;23.20;43.90;;;;;;6167168;28;83416;-47
2024/02/09 13:37:44;;;;;;;15.48;10.48;;;23.20;43.90;;;;;;6164933;28;83130;-49
2024/02/09 13:40:45;;;;;;;14.85;10.20;;;23.20;43.90;;;;;;6166105;28;83569;-49
2024/02/09 13:43:45;;;;;;;17.10;10.90;;;23.20;43.90;;;;;;6171647;28;83277;-48
2024/02/09 13:46:46;;;;;;;16.02;9.80;;;23.10;43.80;;;;;;6161760;28;88603;-47
2024/02/09 13:49:46;;;;;;;14.77;9.88;;;23.10;43.80;;;;;;6160082;28;83037;-52
2024/02/09 13:52:47;;;;;;;14.27;9.70;;;23.10;43.80;;;;;;6174501;28;80480;-47
2024/02/09 13:55:48;;;;;;;17.20;10.15;;;23.10;43.70;;;;;;6175892;28;80413;-50
2024/02/09 13:58:48;;;;;;;18.67;10.80;;;23.10;43.80;;;;;;6149743;28;85156;-52
2024/02/09 14:01:49;;;;;;;15.25;10.00;;;23.10;44.70;;;;;;6163989;28;84493;-51
2024/02/09 14:04:49;;;;;;;15.07;10.07;;;23.10;44.60;;;;;;6160845;28;83582;-49
2024/02/09 14:07:50;;;;;;;16.90;11.57;;;23.10;44.80;;;;;;6166907;28;83308;-48
2024/02/09 14:10:51;;;;;;;15.10;10.80;;;23.10;44.80;;;;;;6173005;28;84489;-52
2024/02/09 14:13:52;;;;;;;20.05;10.70;;;23.10;45.20;;;;;;6161127;28;83446;-45
2024/02/09 14:16:54;;;;;;;14.55;10.02;;;23.10;45.20;;;;;;6156999;28;83562;-51
2024/02/09 14:19:55;;;;;;;14.90;10.00;;;23.10;45.40;;;;;;6154612;28;82928;-48
2024/02/09 14:22:55;;;;;;;23.77;11.63;;;23.10;45.50;;;;;;6157862;28;84367;-48
2024/02/09 14:25:59;;;;;;;18.60;10.18;;;23.20;45.20;;;;;;6167234;28;84623;-48
2024/02/09 14:29:00;;;;;;;21.55;10.88;;;23.20;45.10;;;;;;6165121;28;83557;-53
2024/02/09 14:32:01;;;;;;;14.65;9.77;;;23.10;45.20;;;;;;6166518;28;83412;-49
2024/02/09 14:35:01;;;;;;;15.10;11.05;;;23.20;45.10;;;;;;6170173;28;82948;-47
2024/02/09 14:38:02;;;;;;;15.43;10.15;;;23.20;45.10;;;;;;6165396;28;82681;-50
2024/02/09 14:41:02;;;;;;;15.73;10.60;;;23.20;45.10;;;;;;6168041;28;83217;-61
2024/02/09 14:44:03;;;;;;;20.02;10.23;;;23.20;45.10;;;;;;6160294;28;84509;-62
2024/02/09 14:47:04;;;;;;;20.42;11.63;;;23.20;45.20;;;;;;6166925;28;83627;-61
2024/02/09 14:50:08;;;;;;;17.67;11.95;;;23.20;45.10;;;;;;6169772;28;83446;-58
2024/02/09 14:53:08;;;;;;;17.75;11.60;;;23.30;45.10;;;;;;6171268;28;83187;-61
2024/02/09 14:56:10;;;;;;;18.90;11.73;;;23.20;45.00;;;;;;6154449;28;83244;-59
2024/02/09 14:59:11;;;;;;;25.08;12.30;;;23.20;45.80;;;;;;6157633;28;85154;-61
2024/02/09 15:02:12;;;;;;;15.57;10.23;;;23.20;46.10;;;;;;6152179;28;83571;-60
2024/02/09 15:05:13;;;;;;;16.75;11.10;;;23.20;46.10;;;;;;6138558;28;84019;-60
2024/02/09 15:08:14;;;;;;;16.77;11.20;;;23.20;46.70;;;;;;6147004;28;83614;-57
2024/02/09 15:11:14;;;;;;;18.52;12.15;;;23.20;47.00;;;;;;6168181;28;83263;-59
2024/02/09 15:14:15;;;;;;;21.08;12.90;;;23.20;46.40;;;;;;6140175;28;82969;-60
2024/02/09 15:17:20;;;;;;;20.38;12.65;;;23.20;46.90;;;;;;6132607;28;85573;-58
2024/02/09 15:20:21;;;;;;;20.45;11.95;;;23.10;47.00;;;;;;6167181;28;83821;-58
2024/02/09 15:23:24;;;;;;;17.67;11.95;;;23.20;47.00;;;;;;6163113;28;83705;-59
2024/02/09 15:26:26;;;;;;;19.10;12.02;;;23.20;46.80;;;;;;6127448;28;86688;-60
2024/02/09 15:29:26;;;;;;;21.48;12.68;;;23.10;47.20;;;;;;6127353;28;84542;-60
2024/02/09 15:32:27;;;;;;;17.17;12.13;;;23.10;48.20;;;;;;6154524;28;83302;-59
2024/02/09 15:35:28;;;;;;;21.40;12.50;;;23.10;47.60;;;;;;6166076;28;85365;-64
2024/02/09 15:38:30;;;;;;;25.10;12.25;;;23.10;48.10;;;;;;6162114;28;83469;-61
2024/02/09 15:41:30;;;;;;;22.73;12.45;;;23.10;48.00;;;;;;6164176;28;83701;-62
2024/02/09 15:44:31;;;;;;;18.10;12.57;;;23.10;48.00;;;;;;6174138;28;83700;-61
2024/02/09 15:47:32;;;;;;;20.33;12.70;;;23.10;47.80;;;;;;6164371;28;84323;-61
2024/02/09 15:50:32;;;;;;;20.05;12.88;;;23.10;48.20;;;;;;6164495;28;83551;-60
2024/02/09 15:53:33;;;;;;;25.35;12.23;;;23.10;48.20;;;;;;6165435;28;83173;-61
2024/02/09 15:56:35;;;;;;;25.25;13.10;;;23.10;48.30;;;;;;6153527;28;88778;-61
2024/02/09 15:59:39;;;;;;;18.90;12.57;;;23.10;48.40;;;;;;6167342;28;83297;-60
2024/02/09 16:02:40;;;;;;;20.45;13.55;;;23.10;48.40;;;;;;6160376;28;83341;-63
2024/02/09 16:05:41;;;;;;;19.75;12.57;;;23.10;48.40;;;;;;6158972;28;84162;-62
2024/02/09 16:08:42;;;;;;;16.35;11.95;;;23.10;48.20;;;;;;6159942;28;85191;-65
2024/02/09 16:11:46;;;;;;;18.98;12.02;;;23.10;48.60;;;;;;6168236;28;87967;-67
2024/02/09 16:14:46;;;;;;;18.33;12.38;;;23.10;48.40;;;;;;6153104;28;83750;-62
2024/02/09 16:17:47;;;;;;;21.42;12.77;;;23.10;48.60;;;;;;6164971;28;83375;-62
2024/02/09 16:20:48;;;;;;;22.35;13.18;;;23.20;48.60;;;;;;6169059;28;83169;-63
2024/02/09 16:23:49;;;;;;;20.48;12.35;;;23.20;49.10;;;;;;6163253;28;88347;-60
2024/02/09 16:26:49;;;;;;;20.85;12.75;;;23.20;49.00;;;;;;6168681;28;83147;-62
2024/02/09 16:29:50;;;;;;;18.55;12.52;;;23.20;49.40;;;;;;6166460;28;85871;-62
2024/02/09 16:32:51;;;;;;;17.83;12.48;;;23.20;49.70;;;;;;6157273;28;87938;-61
2024/02/09 16:35:51;;;;;;;22.20;11.88;;;23.20;50.20;;;;;;6161175;28;83736;-63
2024/02/09 16:38:52;;;;;;;18.38;11.95;;;23.30;50.20;;;;;;6160495;28;83119;-61
2024/02/09 16:41:52;;;;;;;18.63;11.73;;;23.20;50.90;;;;;;6164198;28;83172;-62
2024/02/09 16:44:53;;;;;;;17.60;11.82;;;23.30;51.30;;;;;;6164431;28;89298;-61
2024/02/09 16:47:54;;;;;;;20.30;12.30;;;23.30;52.80;;;;;;6166234;28;83304;-59
2024/02/09 16:50:57;;;;;;;19.98;12.57;;;23.30;52.70;;;;;;6165068;28;83908;-61
2024/02/09 16:53:58;;;;;;;20.17;12.18;;;23.30;52.30;;;;;;6161035;28;83384;-68
2024/02/09 16:56:59;;;;;;;19.20;12.60;;;23.30;53.10;;;;;;6155444;28;83668;-65
2024/02/09 16:59:59;;;;;;;18.85;12.07;;;23.30;54.20;;;;;;6156846;28;83227;-66
2024/02/09 17:03:02;;;;;;;20.27;12.38;;;23.40;53.80;;;;;;6155943;28;83624;-63
2024/02/09 17:06:02;;;;;;;17.60;11.27;;;23.40;54.20;;;;;;6157360;28;82793;-63
2024/02/09 17:09:03;;;;;;;20.35;11.23;;;23.40;52.70;;;;;;6169002;28;82881;-53
2024/02/09 17:12:03;;;;;;;20.15;12.00;;;23.40;52.70;;;;;;6172727;28;83484;-58
2024/02/09 17:15:07;;;;;;;18.52;11.88;;;23.40;52.60;;;;;;6170089;28;83936;-57
2024/02/09 17:18:08;;;;;;;21.85;12.13;;;23.50;52.00;;;;;;6169937;28;85627;-55
2024/02/09 17:21:10;;;;;;;20.52;12.10;;;23.40;50.90;;;;;;6164327;28;84023;-50